sensor_id;sensor_type;location;lat;lon;timestamp;pressure;altitude;pressure_sealevel;temperature;humidity
22311;BME280;11323;49.610;11.016;2023-06-24T00:01:17;99025.59;;;24.10;52.72
22311;BME280;11323;49.610;11.016;2023-06-24T00:06:17;99024.00;;;24.09;52.92
22311;BME280;11323;49.610;11.016;2023-06-24T00:11:18;99024.19;;;24.08;52.64
22311;BME280;11323;49.610;11.016;2023-06-24T00:16:19;99021.75;;;24.06;52.51
22311;BME280;11323;49.610;11.016;2023-06-24T00:21:26;99013.56;;;24.01;52.69
22311;BME280;11323;49.610;11.016;2023-06-24T00:26:30;99017.44;;;24.05;52.61
22311;BME280;11323;49.610;11.016;2023-06-24T00:31:31;99018.47;;;24.04;52.81
22311;BME280;11323;49.610;11.016;2023-06-24T00:36:32;99010.28;;;23.99;52.81
22311;BME280;11323;49.610;11.016;2023-06-24T00:41:34;98999.03;;;24.03;52.71
22311;BME280;11323;49.610;11.016;2023-06-24T00:46:34;99007.44;;;24.00;52.83
22311;BME280;11323;49.610;11.016;2023-06-24T00:51:35;98993.50;;;23.91;52.82
22311;BME280;11323;49.610;11.016;2023-06-24T00:56:37;98990.63;;;24.00;52.96
22311;BME280;11323;49.610;11.016;2023-06-24T01:01:43;98979.19;;;23.99;53.02
22311;BME280;11323;49.610;11.016;2023-06-24T01:06:44;98973.47;;;23.96;52.99
22311;BME280;11323;49.610;11.016;2023-06-24T01:11:45;98969.31;;;23.93;53.01
22311;BME280;11323;49.610;11.016;2023-06-24T01:17:05;98966.88;;;23.91;53.07
22311;BME280;11323;49.610;11.016;2023-06-24T01:22:35;98977.13;;;23.95;53.12
22311;BME280;11323;49.610;11.016;2023-06-24T01:28:00;98971.81;;;23.88;53.10
22311;BME280;11323;49.610;11.016;2023-06-24T01:33:09;98963.22;;;23.86;53.07
22311;BME280;11323;49.610;11.016;2023-06-24T01:38:22;98962.19;;;23.87;53.33
22311;BME280;11323;49.610;11.016;2023-06-24T01:43:25;98961.56;;;23.91;53.22
22311;BME280;11323;49.610;11.016;2023-06-24T01:48:28;98954.44;;;23.85;53.22
22311;BME280;11323;49.610;11.016;2023-06-24T01:53:33;98960.94;;;23.89;53.24
22311;BME280;11323;49.610;11.016;2023-06-24T01:58:35;98946.22;;;23.87;53.02
22311;BME280;11323;49.610;11.016;2023-06-24T02:03:36;98946.00;;;23.88;53.01
22311;BME280;11323;49.610;11.016;2023-06-24T02:08:39;98946.00;;;23.88;53.13
22311;BME280;11323;49.610;11.016;2023-06-24T02:13:42;98942.31;;;23.89;53.04
22311;BME280;11323;49.610;11.016;2023-06-24T02:18:49;98943.34;;;23.88;53.22
22311;BME280;11323;49.610;11.016;2023-06-24T02:23:51;98947.84;;;23.88;53.30
22311;BME280;11323;49.610;11.016;2023-06-24T02:28:52;98929.66;;;23.78;53.15
22311;BME280;11323;49.610;11.016;2023-06-24T02:33:53;98953.41;;;23.86;53.27
22311;BME280;11323;49.610;11.016;2023-06-24T02:38:53;98951.75;;;23.85;53.27
22311;BME280;11323;49.610;11.016;2023-06-24T02:43:54;98943.16;;;23.83;53.24
22311;BME280;11323;49.610;11.016;2023-06-24T02:48:56;98947.66;;;23.83;53.43
22311;BME280;11323;49.610;11.016;2023-06-24T02:53:59;98957.28;;;23.84;53.48
22311;BME280;11323;49.610;11.016;2023-06-24T02:59:19;98957.50;;;23.82;53.46
22311;BME280;11323;49.610;11.016;2023-06-24T03:04:23;98964.47;;;23.83;53.56
22311;BME280;11323;49.610;11.016;2023-06-24T03:09:23;98968.56;;;23.79;53.50
22311;BME280;11323;49.610;11.016;2023-06-24T03:14:24;98971.63;;;23.83;53.58
22311;BME280;11323;49.610;11.016;2023-06-24T03:19:24;98965.28;;;23.77;53.56
22311;BME280;11323;49.610;11.016;2023-06-24T03:24:25;98986.78;;;23.82;53.90
22311;BME280;11323;49.610;11.016;2023-06-24T03:29:27;98977.16;;;23.81;53.83
22311;BME280;11323;49.610;11.016;2023-06-24T03:34:34;98975.34;;;23.75;53.96
22311;BME280;11323;49.610;11.016;2023-06-24T03:39:34;98979.44;;;23.78;53.92
22311;BME280;11323;49.610;11.016;2023-06-24T03:44:36;98984.75;;;23.78;53.97
22311;BME280;11323;49.610;11.016;2023-06-24T03:49:36;99000.50;;;23.79;53.93
22311;BME280;11323;49.610;11.016;2023-06-24T03:54:37;98999.72;;;23.72;53.86
22311;BME280;11323;49.610;11.016;2023-06-24T03:59:39;99021.00;;;23.79;54.02
22311;BME280;11323;49.610;11.016;2023-06-24T04:04:39;99020.16;;;23.78;53.90
22311;BME280;11323;49.610;11.016;2023-06-24T04:09:39;99023.03;;;23.77;54.11
22311;BME280;11323;49.610;11.016;2023-06-24T04:14:40;99035.31;;;23.78;54.22
22311;BME280;11323;49.610;11.016;2023-06-24T04:19:41;99031.44;;;23.73;54.03
22311;BME280;11323;49.610;11.016;2023-06-24T04:24:42;99026.94;;;23.74;53.94
22311;BME280;11323;49.610;11.016;2023-06-24T04:29:43;99041.44;;;23.78;53.95
22311;BME280;11323;49.610;11.016;2023-06-24T04:34:44;99055.78;;;23.77;53.98
22311;BME280;11323;49.610;11.016;2023-06-24T04:39:44;99057.41;;;23.78;54.51
22311;BME280;11323;49.610;11.016;2023-06-24T04:44:45;99052.94;;;23.72;53.91
22311;BME280;11323;49.610;11.016;2023-06-24T04:49:46;99064.38;;;23.79;53.97
22311;BME280;11323;49.610;11.016;2023-06-24T04:54:46;99076.66;;;23.80;54.06
22311;BME280;11323;49.610;11.016;2023-06-24T04:59:46;99063.97;;;23.82;53.87
22311;BME280;11323;49.610;11.016;2023-06-24T05:04:47;99065.59;;;23.83;53.83
22311;BME280;11323;49.610;11.016;2023-06-24T05:09:48;99065.38;;;23.85;53.68
22311;BME280;11323;49.610;11.016;2023-06-24T05:14:50;99070.53;;;23.86;53.62
22311;BME280;11323;49.610;11.016;2023-06-24T05:19:51;99085.66;;;23.86;53.84
22311;BME280;11323;49.610;11.016;2023-06-24T05:24:52;99073.38;;;23.91;53.51
22311;BME280;11323;49.610;11.016;2023-06-24T05:29:52;99062.31;;;23.88;53.58
22311;BME280;11323;49.610;11.016;2023-06-24T05:34:53;99067.25;;;23.98;53.43
22311;BME280;11323;49.610;11.016;2023-06-24T05:39:53;99076.44;;;24.02;53.18
22311;BME280;11323;49.610;11.016;2023-06-24T05:44:53;99075.19;;;24.04;53.19
22311;BME280;11323;49.610;11.016;2023-06-24T05:49:54;99078.28;;;24.08;53.02
22311;BME280;11323;49.610;11.016;2023-06-24T05:54:54;99075.03;;;23.59;51.07
22311;BME280;11323;49.610;11.016;2023-06-24T05:59:55;99070.94;;;23.03;52.01
22311;BME280;11323;49.610;11.016;2023-06-24T06:04:55;99082.75;;;22.87;52.20
22311;BME280;11323;49.610;11.016;2023-06-24T06:09:55;99078.06;;;22.89;51.86
22311;BME280;11323;49.610;11.016;2023-06-24T06:14:56;99078.44;;;22.79;51.42
22311;BME280;11323;49.610;11.016;2023-06-24T06:19:56;99080.28;;;22.72;51.99
22311;BME280;11323;49.610;11.016;2023-06-24T06:24:56;99075.38;;;22.75;51.64
22311;BME280;11323;49.610;11.016;2023-06-24T06:29:57;99073.34;;;22.77;51.73
22311;BME280;11323;49.610;11.016;2023-06-24T06:34:57;99059.44;;;22.82;51.90
22311;BME280;11323;49.610;11.016;2023-06-24T06:39:57;99067.22;;;22.90;51.97
22311;BME280;11323;49.610;11.016;2023-06-24T06:44:58;99066.44;;;22.96;51.92
22311;BME280;11323;49.610;11.016;2023-06-24T06:49:58;99067.66;;;23.01;51.93
22311;BME280;11323;49.610;11.016;2023-06-24T06:54:58;99062.75;;;23.04;52.23
22311;BME280;11323;49.610;11.016;2023-06-24T06:59:59;99062.34;;;23.07;52.26
22311;BME280;11323;49.610;11.016;2023-06-24T07:04:59;99059.06;;;23.12;52.25
22311;BME280;11323;49.610;11.016;2023-06-24T07:10:00;99052.53;;;23.08;52.44
22311;BME280;11323;49.610;11.016;2023-06-24T07:15:01;99057.44;;;23.11;52.46
22311;BME280;11323;49.610;11.016;2023-06-24T07:20:02;99049.84;;;23.14;52.25
22311;BME280;11323;49.610;11.016;2023-06-24T07:25:02;99052.94;;;23.18;52.33
22311;BME280;11323;49.610;11.016;2023-06-24T07:30:04;99045.59;;;23.20;52.20
22311;BME280;11323;49.610;11.016;2023-06-24T07:35:05;99045.59;;;23.20;52.26
22311;BME280;11323;49.610;11.016;2023-06-24T07:40:06;99042.94;;;23.20;52.23
22311;BME280;11323;49.610;11.016;2023-06-24T07:45:08;99034.16;;;23.26;52.11
22311;BME280;11323;49.610;11.016;2023-06-24T07:50:08;99042.75;;;23.28;52.23
22311;BME280;11323;49.610;11.016;2023-06-24T07:55:11;99041.13;;;23.27;52.24
22311;BME280;11323;49.610;11.016;2023-06-24T08:00:12;99035.56;;;23.22;52.15
22311;BME280;11323;49.610;11.016;2023-06-24T08:05:17;99044.41;;;23.29;52.21
22311;BME280;11323;49.610;11.016;2023-06-24T08:10:18;99043.16;;;23.32;52.22
22311;BME280;11323;49.610;11.016;2023-06-24T08:15:19;99039.66;;;23.32;52.14
22311;BME280;11323;49.610;11.016;2023-06-24T08:20:20;99044.78;;;23.33;52.24
22311;BME280;11323;49.610;11.016;2023-06-24T08:25:21;99036.59;;;23.35;52.25
22311;BME280;11323;49.610;11.016;2023-06-24T08:30:21;99036.59;;;23.35;52.25
22311;BME280;11323;49.610;11.016;2023-06-24T08:35:21;99031.69;;;23.32;52.44
22311;BME280;11323;49.610;11.016;2023-06-24T08:40:22;99042.94;;;23.34;52.34
22311;BME280;11323;49.610;11.016;2023-06-24T08:45:22;99034.78;;;23.35;52.27
22311;BME280;11323;49.610;11.016;2023-06-24T08:50:24;99026.97;;;23.34;52.62
22311;BME280;11323;49.610;11.016;2023-06-24T08:55:27;99018.19;;;23.33;52.82
22311;BME280;11323;49.610;11.016;2023-06-24T09:00:31;99028.84;;;23.33;52.93
22311;BME280;11323;49.610;11.016;2023-06-24T09:05:31;99013.69;;;23.27;53.14
22311;BME280;11323;49.610;11.016;2023-06-24T09:10:36;99036.59;;;23.41;53.20
22311;BME280;11323;49.610;11.016;2023-06-24T09:15:38;99027.59;;;23.42;53.27
22311;BME280;11323;49.610;11.016;2023-06-24T09:20:41;99033.31;;;23.46;53.24
22311;BME280;11323;49.610;11.016;2023-06-24T09:25:55;99033.31;;;23.46;53.23
22311;BME280;11323;49.610;11.016;2023-06-24T09:31:08;99034.94;;;23.47;52.77
22311;BME280;11323;49.610;11.016;2023-06-24T09:36:13;99020.84;;;23.47;53.00
22311;BME280;11323;49.610;11.016;2023-06-24T09:41:14;99011.63;;;23.42;52.83
22311;BME280;11323;49.610;11.016;2023-06-24T09:46:15;99017.13;;;23.48;52.71
22311;BME280;11323;49.610;11.016;2023-06-24T09:51:16;98996.69;;;23.41;52.88
22311;BME280;11323;49.610;11.016;2023-06-24T09:56:18;99001.41;;;23.46;52.89
22311;BME280;11323;49.610;11.016;2023-06-24T10:01:19;98989.13;;;23.45;52.94
22311;BME280;11323;49.610;11.016;2023-06-24T10:06:20;98981.13;;;23.45;52.90
22311;BME280;11323;49.610;11.016;2023-06-24T10:11:20;98988.72;;;23.48;53.02
22311;BME280;11323;49.610;11.016;2023-06-24T10:16:21;98984.19;;;23.49;52.92
22311;BME280;11323;49.610;11.016;2023-06-24T10:21:22;98968.84;;;23.44;53.02
22311;BME280;11323;49.610;11.016;2023-06-24T10:26:30;98959.47;;;23.41;53.25
22311;BME280;11323;49.610;11.016;2023-06-24T10:36:39;98952.28;;;23.49;53.05
22311;BME280;11323;49.610;11.016;2023-06-24T10:41:40;98945.13;;;23.49;53.06
22311;BME280;11323;49.610;11.016;2023-06-24T10:46:41;98946.56;;;23.45;53.06
22311;BME280;11323;49.610;11.016;2023-06-24T10:51:41;98942.88;;;23.46;53.14
22311;BME280;11323;49.610;11.016;2023-06-24T10:56:43;98939.81;;;23.49;53.13
22311;BME280;11323;49.610;11.016;2023-06-24T11:01:53;98917.91;;;23.47;53.24
22311;BME280;11323;49.610;11.016;2023-06-24T11:07:01;98923.00;;;23.49;53.18
22311;BME280;11323;49.610;11.016;2023-06-24T11:12:04;98918.31;;;23.51;53.17
22311;BME280;11323;49.610;11.016;2023-06-24T11:17:05;98923.00;;;23.55;53.31
22311;BME280;11323;49.610;11.016;2023-06-24T11:22:07;98907.47;;;23.52;53.29
22311;BME280;11323;49.610;11.016;2023-06-24T11:27:07;98887.63;;;23.48;53.27
22311;BME280;11323;49.610;11.016;2023-06-24T11:32:09;98889.88;;;23.51;53.33
22311;BME280;11323;49.610;11.016;2023-06-24T11:37:13;98900.50;;;23.58;53.27
22311;BME280;11323;49.610;11.016;2023-06-24T11:42:14;98888.41;;;23.55;53.46
22311;BME280;11323;49.610;11.016;2023-06-24T11:47:14;98893.31;;;23.58;53.23
22311;BME280;11323;49.610;11.016;2023-06-24T11:52:15;98889.22;;;23.63;53.32
22311;BME280;11323;49.610;11.016;2023-06-24T11:57:15;98892.91;;;23.62;52.86
22311;BME280;11323;49.610;11.016;2023-06-24T12:02:15;98889.22;;;23.63;53.38
22311;BME280;11323;49.610;11.016;2023-06-24T12:07:16;98872.44;;;23.55;53.36
22311;BME280;11323;49.610;11.016;2023-06-24T12:12:16;98884.31;;;23.59;53.53
22311;BME280;11323;49.610;11.016;2023-06-24T12:17:16;98872.81;;;23.66;53.41
22311;BME280;11323;49.610;11.016;2023-06-24T12:22:17;98874.47;;;23.60;53.36
22311;BME280;11323;49.610;11.016;2023-06-24T12:27:17;98879.34;;;23.70;53.42
22311;BME280;11323;49.610;11.016;2023-06-24T12:32:17;98868.28;;;23.73;53.37
22311;BME280;11323;49.610;11.016;2023-06-24T12:37:18;98862.34;;;23.71;53.36
22311;BME280;11323;49.610;11.016;2023-06-24T12:42:19;98859.28;;;23.74;53.27
22311;BME280;11323;49.610;11.016;2023-06-24T12:47:20;98857.63;;;23.73;53.37
22311;BME280;11323;49.610;11.016;2023-06-24T12:52:20;98853.97;;;23.67;53.37
22311;BME280;11323;49.610;11.016;2023-06-24T12:57:21;98846.56;;;23.76;53.51
22311;BME280;11323;49.610;11.016;2023-06-24T13:02:21;98837.53;;;23.77;53.26
22311;BME280;11323;49.610;11.016;2023-06-24T13:07:21;98838.38;;;23.78;53.66
22311;BME280;11323;49.610;11.016;2023-06-24T13:12:22;98825.25;;;23.76;53.71
22311;BME280;11323;49.610;11.016;2023-06-24T13:17:22;98825.66;;;23.80;53.61
22311;BME280;11323;49.610;11.016;2023-06-24T13:22:23;98835.44;;;23.86;53.60
22311;BME280;11323;49.610;11.016;2023-06-24T13:27:23;98825.63;;;23.86;53.52
22311;BME280;11323;49.610;11.016;2023-06-24T13:32:23;98816.59;;;23.87;53.54
22311;BME280;11323;49.610;11.016;2023-06-24T13:37:24;98819.25;;;23.87;53.42
22311;BME280;11323;49.610;11.016;2023-06-24T13:42:25;98818.69;;;23.85;53.44
22311;BME280;11323;49.610;11.016;2023-06-24T13:47:26;98812.31;;;23.86;53.67
22311;BME280;11323;49.610;11.016;2023-06-24T13:52:26;98807.16;;;23.91;53.62
22311;BME280;11323;49.610;11.016;2023-06-24T13:57:27;98815.75;;;23.94;53.88
22311;BME280;11323;49.610;11.016;2023-06-24T14:02:27;98808.00;;;23.92;53.47
22311;BME280;11323;49.610;11.016;2023-06-24T14:07:28;98791.59;;;23.95;53.43
22311;BME280;11323;49.610;11.016;2023-06-24T14:12:29;98796.09;;;23.95;53.36
22311;BME280;11323;49.610;11.016;2023-06-24T14:17:29;98787.28;;;23.94;53.53
22311;BME280;11323;49.610;11.016;2023-06-24T14:22:30;98782.19;;;23.93;53.31
22311;BME280;11323;49.610;11.016;2023-06-24T14:27:30;98798.94;;;24.00;53.36
22311;BME280;11323;49.610;11.016;2023-06-24T14:32:31;98781.78;;;23.96;53.43
22311;BME280;11323;49.610;11.016;2023-06-24T14:37:31;98783.56;;;24.02;53.56
22311;BME280;11323;49.610;11.016;2023-06-24T14:42:31;98765.41;;;23.92;53.39
22311;BME280;11323;49.610;11.016;2023-06-24T14:47:32;98758.81;;;23.95;53.58
22311;BME280;11323;49.610;11.016;2023-06-24T14:52:32;98776.78;;;24.06;53.52
22311;BME280;11323;49.610;11.016;2023-06-24T14:57:32;98762.88;;;24.04;53.52
22311;BME280;11323;49.610;11.016;2023-06-24T15:02:33;98762.44;;;24.07;53.38
22311;BME280;11323;49.610;11.016;2023-06-24T15:07:35;98764.47;;;24.12;53.42
22311;BME280;11323;49.610;11.016;2023-06-24T15:12:35;98751.94;;;24.12;53.34
22311;BME280;11323;49.610;11.016;2023-06-24T15:17:36;98738.25;;;24.09;53.38
22311;BME280;11323;49.610;11.016;2023-06-24T15:22:40;98737.59;;;24.13;53.46
22311;BME280;11323;49.610;11.016;2023-06-24T15:27:41;98737.78;;;24.18;53.57
22311;BME280;11323;49.610;11.016;2023-06-24T15:32:41;98732.22;;;24.20;53.48
22311;BME280;11323;49.610;11.016;2023-06-24T15:37:42;98723.44;;;24.19;53.42
22311;BME280;11323;49.610;11.016;2023-06-24T15:42:43;98727.88;;;24.26;53.38
22311;BME280;11323;49.610;11.016;2023-06-24T15:47:43;98716.63;;;24.24;53.49
22311;BME280;11323;49.610;11.016;2023-06-24T15:52:43;98729.06;;;24.30;53.41
22311;BME280;11323;49.610;11.016;2023-06-24T15:57:43;98717.22;;;24.26;53.32
22311;BME280;11323;49.610;11.016;2023-06-24T16:02:44;98721.69;;;24.32;53.44
22311;BME280;11323;49.610;11.016;2023-06-24T16:07:44;98719.75;;;24.39;53.34
22311;BME280;11323;49.610;11.016;2023-06-24T16:12:44;98717.88;;;24.40;53.48
22311;BME280;11323;49.610;11.016;2023-06-24T16:17:45;98714.19;;;24.41;53.43
22311;BME280;11323;49.610;11.016;2023-06-24T16:22:46;98706.19;;;24.41;53.66
22311;BME280;11323;49.610;11.016;2023-06-24T16:27:46;98697.41;;;24.40;53.59
22311;BME280;11323;49.610;11.016;2023-06-24T16:32:47;98698.97;;;24.48;53.17
22311;BME280;11323;49.610;11.016;2023-06-24T16:37:47;98698.75;;;24.49;53.52
22311;BME280;11323;49.610;11.016;2023-06-24T16:42:48;98691.94;;;24.54;53.40
22311;BME280;11323;49.610;11.016;2023-06-24T16:47:48;98697.03;;;24.55;53.08
22311;BME280;11323;49.610;11.016;2023-06-24T16:52:48;98696.00;;;24.56;53.37
22311;BME280;11323;49.610;11.016;2023-06-24T16:57:48;98691.84;;;24.60;53.39
22311;BME280;11323;49.610;11.016;2023-06-24T17:02:49;98672.41;;;24.60;53.34
22311;BME280;11323;49.610;11.016;2023-06-24T17:07:49;98684.41;;;24.69;53.08
22311;BME280;11323;49.610;11.016;2023-06-24T17:12:50;98680.72;;;24.70;53.45
22311;BME280;11323;49.610;11.016;2023-06-24T17:17:50;98673.91;;;24.74;53.27
22311;BME280;11323;49.610;11.016;2023-06-24T17:22:50;98683.06;;;24.78;53.35
22311;BME280;11323;49.610;11.016;2023-06-24T17:27:51;98678.91;;;24.82;53.31
22311;BME280;11323;49.610;11.016;2023-06-24T17:32:51;98639.03;;;24.57;53.12
22311;BME280;11323;49.610;11.016;2023-06-24T17:37:51;98684.63;;;24.86;52.88
22311;BME280;11323;49.610;11.016;2023-06-24T17:42:52;98675.59;;;24.87;53.04
22311;BME280;11323;49.610;11.016;2023-06-24T17:47:54;98684.41;;;24.88;53.25
22311;BME280;11323;49.610;11.016;2023-06-24T17:52:55;98654.22;;;24.75;53.27
22311;BME280;11323;49.610;11.016;2023-06-24T17:57:55;98680.84;;;24.94;53.24
22311;BME280;11323;49.610;11.016;2023-06-24T18:02:55;98684.09;;;24.96;53.00
22311;BME280;11323;49.610;11.016;2023-06-24T18:07:57;98657.97;;;24.86;53.22
22311;BME280;11323;49.610;11.016;2023-06-24T18:12:58;98679.13;;;25.00;53.03
22311;BME280;11323;49.610;11.016;2023-06-24T18:17:58;98683.19;;;25.02;52.92
22311;BME280;11323;49.610;11.016;2023-06-24T18:22:58;98674.16;;;25.03;52.97
22311;BME280;11323;49.610;11.016;2023-06-24T18:27:59;98675.19;;;25.02;53.09
22311;BME280;11323;49.610;11.016;2023-06-24T18:32:59;98679.28;;;25.05;52.79
22311;BME280;11323;49.610;11.016;2023-06-24T18:38:00;98676.22;;;25.01;53.04
22311;BME280;11323;49.610;11.016;2023-06-24T18:43:00;98673.34;;;25.03;53.12
22311;BME280;11323;49.610;11.016;2023-06-24T18:48:01;98678.44;;;25.04;52.71
22311;BME280;11323;49.610;11.016;2023-06-24T18:53:01;98682.13;;;25.03;52.84
22311;BME280;11323;49.610;11.016;2023-06-24T18:58:01;98671.47;;;25.03;53.04
22311;BME280;11323;49.610;11.016;2023-06-24T19:03:02;98677.84;;;25.02;53.12
22311;BME280;11323;49.610;11.016;2023-06-24T19:08:02;98674.16;;;25.03;53.10
22311;BME280;11323;49.610;11.016;2023-06-24T19:13:05;98666.03;;;24.98;53.04
22311;BME280;11323;49.610;11.016;2023-06-24T19:18:05;98681.47;;;25.08;52.94
22311;BME280;11323;49.610;11.016;2023-06-24T19:23:05;98666.38;;;25.02;52.80
22311;BME280;11323;49.610;11.016;2023-06-24T19:28:06;98680.66;;;25.07;52.88
22311;BME280;11323;49.610;11.016;2023-06-24T19:33:06;98673.69;;;25.06;52.75
22311;BME280;11323;49.610;11.016;2023-06-24T19:38:06;98665.09;;;25.04;52.60
22311;BME280;11323;49.610;11.016;2023-06-24T19:43:07;98674.50;;;25.07;52.78
22311;BME280;11323;49.610;11.016;2023-06-24T19:48:07;98673.69;;;25.06;52.71
22311;BME280;11323;49.610;11.016;2023-06-24T19:53:07;98675.34;;;25.07;52.79
22311;BME280;11323;49.610;11.016;2023-06-24T19:58:08;98676.59;;;25.05;52.66
22311;BME280;11323;49.610;11.016;2023-06-24T20:03:08;98676.38;;;25.06;52.86
22311;BME280;11323;49.610;11.016;2023-06-24T20:08:08;98672.03;;;24.75;48.89
22311;BME280;11323;49.610;11.016;2023-06-24T20:13:09;98683.66;;;24.62;48.70
22311;BME280;11323;49.610;11.016;2023-06-24T20:18:09;98662.56;;;24.42;48.92
22311;BME280;11323;49.610;11.016;2023-06-24T20:23:10;98676.09;;;24.40;48.42
22311;BME280;11323;49.610;11.016;2023-06-24T20:28:10;98680.34;;;24.23;47.43
22311;BME280;11323;49.610;11.016;2023-06-24T20:33:11;98677.94;;;24.21;47.68
22311;BME280;11323;49.610;11.016;2023-06-24T20:38:12;98669.78;;;24.16;47.69
22311;BME280;11323;49.610;11.016;2023-06-24T20:43:13;98672.66;;;24.14;47.37
22311;BME280;11323;49.610;11.016;2023-06-24T20:48:13;98684.03;;;24.03;46.60
22311;BME280;11323;49.610;11.016;2023-06-24T20:53:14;98667.81;;;23.79;45.41
22311;BME280;11323;49.610;11.016;2023-06-24T20:58:16;98672.31;;;23.53;45.97
22311;BME280;11323;49.610;11.016;2023-06-24T21:03:16;98680.09;;;23.55;46.89
22311;BME280;11323;49.610;11.016;2023-06-24T21:08:16;98670.56;;;23.66;47.58
22311;BME280;11323;49.610;11.016;2023-06-24T21:13:17;98677.34;;;23.68;47.09
22311;BME280;11323;49.610;11.016;2023-06-24T21:18:17;98673.84;;;23.68;47.23
22311;BME280;11323;49.610;11.016;2023-06-24T21:23:18;98679.84;;;23.56;46.77
22311;BME280;11323;49.610;11.016;2023-06-24T21:28:18;98683.34;;;23.82;47.60
22311;BME280;11323;49.610;11.016;2023-06-24T21:33:19;98687.34;;;23.98;48.15
22311;BME280;11323;49.610;11.016;2023-06-24T21:38:19;98696.50;;;24.09;48.71
22311;BME280;11323;49.610;11.016;2023-06-24T21:43:20;98688.63;;;24.14;48.87
22311;BME280;11323;49.610;11.016;2023-06-24T21:48:20;98686.16;;;24.19;48.58
22311;BME280;11323;49.610;11.016;2023-06-24T21:53:21;98678.59;;;24.16;48.97
22311;BME280;11323;49.610;11.016;2023-06-24T21:58:21;98688.75;;;24.26;48.95
22311;BME280;11323;49.610;11.016;2023-06-24T22:03:22;98691.19;;;24.28;49.47
22311;BME280;11323;49.610;11.016;2023-06-24T22:08:22;98685.41;;;24.31;49.25
22311;BME280;11323;49.610;11.016;2023-06-24T22:13:22;98681.56;;;24.27;49.60
22311;BME280;11323;49.610;11.016;2023-06-24T22:18:23;98686.81;;;24.33;49.92
22311;BME280;11323;49.610;11.016;2023-06-24T22:23:23;98680.47;;;24.34;49.93
22311;BME280;11323;49.610;11.016;2023-06-24T22:28:23;98690.88;;;24.36;50.32
22311;BME280;11323;49.610;11.016;2023-06-24T22:33:24;98695.19;;;24.37;50.35
22311;BME280;11323;49.610;11.016;2023-06-24T22:38:24;98693.31;;;24.37;50.37
22311;BME280;11323;49.610;11.016;2023-06-24T22:43:24;98691.47;;;24.38;50.22
22311;BME280;11323;49.610;11.016;2023-06-24T22:48:25;98697.84;;;24.37;50.22
22311;BME280;11323;49.610;11.016;2023-06-24T22:53:25;98698.66;;;24.37;50.53
22311;BME280;11323;49.610;11.016;2023-06-24T22:58:26;98694.94;;;24.39;50.40
22311;BME280;11323;49.610;11.016;2023-06-24T23:03:27;98694.94;;;24.39;50.49
22311;BME280;11323;49.610;11.016;2023-06-24T23:08:27;98694.16;;;24.38;50.75
22311;BME280;11323;49.610;11.016;2023-06-24T23:13:28;98686.16;;;24.38;51.12
22311;BME280;11323;49.610;11.016;2023-06-24T23:18:29;98690.44;;;24.39;51.21
22311;BME280;11323;49.610;11.016;2023-06-24T23:23:30;98679.78;;;24.39;51.22
22311;BME280;11323;49.610;11.016;2023-06-24T23:28:38;98683.50;;;24.38;50.93
22311;BME280;11323;49.610;11.016;2023-06-24T23:33:39;98680.81;;;24.38;51.18
22311;BME280;11323;49.610;11.016;2023-06-24T23:38:40;98676.97;;;24.34;51.16
22311;BME280;11323;49.610;11.016;2023-06-24T23:43:40;98683.50;;;24.38;51.60
22311;BME280;11323;49.610;11.016;2023-06-24T23:48:40;98683.50;;;24.38;51.39
22311;BME280;11323;49.610;11.016;2023-06-24T23:53:41;98672.47;;;24.34;51.41
22311;BME280;11323;49.610;11.016;2023-06-24T23:58:41;98672.84;;;24.38;51.48
